Terminal Aerodrome Forecast
Issued by NWS

Home | Current Version | Previous Version | Text Only | Print | Product List | Glossary On
Versions: 1 2 3 4 5 6 7 8 9 10 11 12 13 14 15 16 17 18 19 20 21
000
FTAK31 PAJN 100500
TAFAJN
TAF
PAJN 100528Z 1006/1106 11009KT P6SM SCT025 BKN045 BKN080
     FM100800 09003KT P6SM FEW005 SCT015 OVC025
     FM101000 VRB02KT 6SM BR FEW002 SCT010 OVC025
     FM101800 24006KT P6SM BKN050
     FM110300 08006KT P6SM BKN050=

USA.gov is the U.S. government's official web portal to all federal, state and local government web resources and services.